Time;durP1;ratioP1;P1;durP2;ratioP2;P2;SDS_P1;SDS_P2;PMS_P1;PMS_P2;Temp;Humidity;BMP_temperature;BMP_pressure;BME280_temperature;BME280_humidity;BME280_pressure;Samples;Min_cycle;Max_cycle;Signal;HPM_P1;HPM_P2
2021/03/14 00:02:00;;;;;;;13.35;7.32;;;;;;;4.65;67.58;93677.94;5092557;28;20039;-70
2021/03/14 00:04:26;;;;;;;16.30;8.10;;;;;;;4.65;67.65;93683.22;5092148;28;20454;-70
2021/03/14 00:06:51;;;;;;;18.25;8.57;;;;;;;4.69;67.55;93673.69;5092248;28;20112;-70
2021/03/14 00:09:17;;;;;;;22.52;9.68;;;;;;;4.69;67.32;93671.81;5092640;28;20024;-70
2021/03/14 00:11:42;;;;;;;25.55;11.25;;;;;;;4.68;67.78;93667.63;5090919;28;20470;-70
2021/03/14 00:14:07;;;;;;;22.63;9.85;;;;;;;4.69;67.28;93678.97;5092555;28;20027;-70
2021/03/14 00:16:33;;;;;;;17.50;8.75;;;;;;;4.63;67.09;93673.72;5091802;28;20206;-70
2021/03/14 00:18:58;;;;;;;20.58;9.63;;;;;;;4.60;67.40;93666.38;5089963;28;20065;-70
2021/03/14 00:21:23;;;;;;;17.92;8.98;;;;;;;4.64;66.84;93671.88;5090371;28;20031;-70
2021/03/14 00:23:49;;;;;;;21.45;9.32;;;;;;;4.62;67.30;93669.53;5091363;28;20034;-70
2021/03/14 00:26:15;;;;;;;21.90;10.20;;;;;;;4.56;67.92;93657.44;5092080;28;20060;-70
2021/03/14 00:28:40;;;;;;;23.33;10.45;;;;;;;4.60;68.21;93647.91;5091667;28;20107;-70
2021/03/14 00:31:05;;;;;;;18.58;9.65;;;;;;;4.56;67.66;93646.88;5090235;28;20032;-70
2021/03/14 00:33:31;;;;;;;19.17;10.43;;;;;;;4.56;67.54;93638.16;5089972;28;20027;-70
2021/03/14 00:35:57;;;;;;;21.13;10.15;;;;;;;4.59;67.44;93641.03;5091176;28;20027;-70
2021/03/14 00:38:22;;;;;;;23.88;10.82;;;;;;;4.57;67.83;93640.53;5091445;28;20024;-70
2021/03/14 00:40:47;;;;;;;23.35;11.10;;;;;;;4.59;67.88;93637.59;5091414;28;20020;-70
2021/03/14 00:43:13;;;;;;;20.75;10.52;;;;;;;4.52;68.35;93621.31;5091697;28;20040;-70
2021/03/14 00:45:39;;;;;;;20.83;10.50;;;;;;;4.54;68.53;93635.00;5091871;28;20445;-70
2021/03/14 00:48:06;;;;;;;23.60;11.05;;;;;;;4.40;68.87;93635.69;5090011;28;20137;-70
2021/03/14 00:50:37;;;;;;;22.60;10.13;;;;;;;4.35;68.76;93632.31;5091822;28;20482;-70
2021/03/14 00:53:03;;;;;;;22.00;10.82;;;;;;;4.35;69.21;93629.66;5090965;28;20131;-71
2021/03/14 00:55:29;;;;;;;23.63;11.27;;;;;;;4.37;68.93;93630.97;5091066;28;20020;-70
2021/03/14 00:57:54;;;;;;;24.38;11.23;;;;;;;4.39;69.27;93628.03;5089570;28;20115;-70
2021/03/14 01:00:20;;;;;;;23.08;10.70;;;;;;;4.35;69.50;93625.16;5091299;28;20030;-70
2021/03/14 01:02:46;;;;;;;20.48;10.30;;;;;;;4.24;70.36;93625.56;5091304;28;20024;-70
2021/03/14 01:05:12;;;;;;;19.17;10.18;;;;;;;4.13;70.79;93628.31;5089700;28;20012;-70
2021/03/14 01:07:37;;;;;;;19.17;9.63;;;;;;;4.12;70.71;93623.31;5091028;28;20028;-70
2021/03/14 01:10:04;;;;;;;18.67;9.13;;;;;;;4.15;70.31;93628.00;5090972;28;20074;-70
2021/03/14 01:12:30;;;;;;;17.02;9.68;;;;;;;4.22;69.89;93637.19;5090931;28;20042;-70
2021/03/14 01:14:55;;;;;;;20.38;9.88;;;;;;;4.26;69.46;93634.78;5091063;28;20028;-70
2021/03/14 01:17:20;;;;;;;21.52;9.55;;;;;;;4.22;69.14;93623.22;5091362;28;20039;-70
2021/03/14 01:19:46;;;;;;;16.80;9.85;;;;;;;4.20;69.12;93631.38;5091146;28;20039;-70
2021/03/14 01:22:11;;;;;;;17.60;9.95;;;;;;;4.19;69.10;93624.56;5090947;28;20034;-70
2021/03/14 01:24:37;;;;;;;16.35;8.57;;;;;;;4.20;68.84;93620.06;5089842;28;20020;-71
2021/03/14 01:27:02;;;;;;;19.63;9.43;;;;;;;4.22;68.35;93617.94;5091143;28;20073;-70
2021/03/14 01:29:28;;;;;;;18.10;9.10;;;;;;;4.19;68.35;93629.03;5089744;28;20127;-70
2021/03/14 01:31:53;;;;;;;19.45;9.98;;;;;;;4.18;68.32;93625.59;5090992;28;20449;-71
2021/03/14 01:34:18;;;;;;;21.40;10.40;;;;;;;4.23;68.11;93616.84;5090883;28;20020;-70
2021/03/14 01:36:44;;;;;;;20.30;8.80;;;;;;;4.16;68.74;93613.78;5089722;28;20053;-70
2021/03/14 01:39:09;;;;;;;19.88;9.05;;;;;;;4.17;68.34;93617.97;5089426;28;20028;-70
2021/03/14 01:41:35;;;;;;;19.50;10.15;;;;;;;4.17;68.78;93621.41;5090975;28;20023;-71
2021/03/14 01:44:00;;;;;;;23.48;10.25;;;;;;;4.14;69.37;93608.75;5090735;28;20119;-70
2021/03/14 01:46:27;;;;;;;15.88;8.90;;;;;;;4.15;69.97;93614.81;5090566;28;20035;-70
2021/03/14 01:48:53;;;;;;;21.80;9.60;;;;;;;4.09;69.98;93608.81;5090749;28;20082;-70
2021/03/14 01:51:19;;;;;;;21.55;9.43;;;;;;;4.15;70.08;93613.00;5090671;28;20224;-70
2021/03/14 01:53:44;;;;;;;16.55;8.95;;;;;;;4.15;69.75;93615.63;5090650;28;20085;-71
2021/03/14 01:56:10;;;;;;;19.30;9.05;;;;;;;4.09;69.82;93616.75;5089158;28;20036;-70
2021/03/14 01:58:38;;;;;;;18.45;9.75;;;;;;;4.07;69.09;93610.94;5090588;28;20504;-70
2021/03/14 02:01:03;;;;;;;16.08;7.97;;;;;;;4.04;69.54;93608.09;5090586;28;20107;-70
2021/03/14 02:03:29;;;;;;;21.58;9.07;;;;;;;4.09;69.01;93614.09;5090429;28;20043;-70
2021/03/14 02:05:54;;;;;;;17.95;8.77;;;;;;;3.91;69.40;93609.50;5090523;28;20020;-70
2021/03/14 02:08:20;;;;;;;16.80;8.35;;;;;;;3.99;69.42;93614.19;5089932;28;20040;-70
2021/03/14 02:10:52;;;;;;;18.95;9.30;;;;;;;3.98;69.34;93599.41;5090676;28;20046;-70
2021/03/14 02:13:24;;;;;;;16.75;7.40;;;;;;;3.99;69.60;93603.66;5090447;28;20114;-70
2021/03/14 02:15:56;;;;;;;14.80;7.22;;;;;;;4.00;69.38;93598.06;5088939;28;20043;-70
2021/03/14 02:18:26;;;;;;;15.45;7.50;;;;;;;4.04;68.86;93603.59;5087932;28;20047;-70
2021/03/14 02:20:52;;;;;;;19.85;9.32;;;;;;;4.02;69.35;93603.06;5090284;28;20109;-70
2021/03/14 02:23:38;;;;;;;28.80;12.45;;;;;;;3.96;70.07;93604.19;5089946;28;20043;-70
2021/03/14 02:26:53;;;;;;;26.58;11.02;;;;;;;3.86;70.50;93599.78;5090182;28;20441;-70
2021/03/14 02:29:21;;;;;;;25.42;12.65;;;;;;;3.91;70.52;93599.75;5082145;28;20414;-70
2021/03/14 02:31:50;;;;;;;25.23;13.40;;;;;;;3.93;70.10;93599.44;5090314;28;20062;-70
2021/03/14 02:34:21;;;;;;;33.03;14.07;;;;;;;3.93;70.26;93605.53;5090275;28;20032;-70
2021/03/14 02:36:48;;;;;;;33.92;16.73;;;;;;;3.98;70.45;93602.06;5084268;28;20024;-70
2021/03/14 02:39:16;;;;;;;37.22;17.95;;;;;;;4.04;70.11;93602.81;5090262;28;20406;-70
2021/03/14 02:41:44;;;;;;;27.83;14.13;;;;;;;4.08;70.39;93603.81;5088825;28;20380;-70
2021/03/14 02:44:13;;;;;;;22.10;12.60;;;;;;;4.12;70.19;93602.97;5089085;28;20062;-70
2021/03/14 02:46:41;;;;;;;23.23;10.75;;;;;;;4.16;69.76;93605.84;5088692;28;20050;-70
2021/03/14 02:49:07;;;;;;;19.30;9.38;;;;;;;4.14;69.82;93602.72;5090350;28;20467;-70
2021/03/14 02:51:34;;;;;;;18.33;9.52;;;;;;;4.20;69.35;93598.97;5090017;28;20036;-70
2021/03/14 02:54:00;;;;;;;18.30;9.63;;;;;;;4.17;69.34;93600.31;5088811;28;20424;-70
2021/03/14 02:56:26;;;;;;;21.02;10.00;;;;;;;4.18;69.35;93607.13;5090241;28;20024;-70
2021/03/14 02:58:53;;;;;;;20.17;11.45;;;;;;;4.18;69.32;93607.13;5089987;28;20031;-70
2021/03/14 03:01:19;;;;;;;23.88;10.90;;;;;;;4.18;69.22;93604.50;5088946;28;20496;-70
2021/03/14 03:03:45;;;;;;;23.27;10.50;;;;;;;4.20;69.19;93604.22;5089991;28;20036;-70
2021/03/14 03:06:11;;;;;;;23.70;12.02;;;;;;;4.18;69.37;93593.94;5090102;28;20493;-70
2021/03/14 03:08:38;;;;;;;20.92;10.60;;;;;;;4.20;69.29;93597.09;5089865;28;20032;-70
2021/03/14 03:11:09;;;;;;;22.85;11.13;;;;;;;4.26;69.18;93581.22;5088910;28;20036;-70
2021/03/14 03:13:36;;;;;;;26.55;10.82;;;;;;;4.26;69.18;93587.28;5086263;28;20479;-70
2021/03/14 03:16:05;;;;;;;26.55;11.93;;;;;;;4.27;69.03;93588.06;5089846;28;20036;-70
2021/03/14 03:18:31;;;;;;;20.85;11.05;;;;;;;4.26;69.07;93591.78;5089735;28;20028;-70
2021/03/14 03:20:57;;;;;;;23.17;10.82;;;;;;;4.26;68.74;93578.59;5091840;28;20493;-70
2021/03/14 03:23:23;;;;;;;18.77;9.52;;;;;;;4.28;68.63;93582.50;5093515;28;20430;-70
2021/03/14 03:25:49;;;;;;;17.20;9.50;;;;;;;4.18;68.98;93582.63;5093159;28;20024;-70
2021/03/14 03:28:14;;;;;;;17.42;9.48;;;;;;;4.18;69.38;93583.41;5093509;28;20049;-70
2021/03/14 03:30:40;;;;;;;20.98;9.50;;;;;;;4.18;69.30;93590.53;5093196;28;20031;-70
2021/03/14 03:33:07;;;;;;;20.48;9.30;;;;;;;4.19;68.37;93585.00;5093293;28;20020;-70
2021/03/14 03:35:33;;;;;;;19.83;9.90;;;;;;;4.15;68.75;93573.41;5093018;28;20225;-71
2021/03/14 03:37:59;;;;;;;18.55;8.95;;;;;;;4.09;68.95;93574.53;5091848;28;20434;-71
2021/03/14 03:40:28;;;;;;;19.58;9.38;;;;;;;4.07;68.55;93579.31;5093336;28;20032;-70
2021/03/14 03:42:56;;;;;;;16.40;9.32;;;;;;;3.92;69.25;93577.59;5091504;28;20040;-70
2021/03/14 03:45:23;;;;;;;26.25;10.20;;;;;;;3.81;69.63;93576.13;5093129;28;20035;-70
2021/03/14 03:47:50;;;;;;;17.15;9.38;;;;;;;3.69;69.98;93571.19;5092879;28;20379;-70
2021/03/14 03:50:16;;;;;;;20.92;10.90;;;;;;;3.65;70.08;93566.75;5091651;28;20044;-70
2021/03/14 03:52:45;;;;;;;23.90;11.30;;;;;;;3.65;70.23;93585.22;5092569;28;20063;-70
2021/03/14 03:55:13;;;;;;;25.58;12.80;;;;;;;3.53;71.36;93582.94;5092861;28;20062;-70
2021/03/14 03:57:40;;;;;;;27.23;13.55;;;;;;;3.45;71.74;93583.50;5091177;28;20036;-70
2021/03/14 04:00:12;;;;;;;25.42;13.18;;;;;;;3.34;71.76;93583.59;5092621;28;20093;-71
2021/03/14 04:02:38;;;;;;;25.48;11.55;;;;;;;3.33;71.69;93576.72;5091368;28;20032;-70
2021/03/14 04:05:07;;;;;;;21.35;11.25;;;;;;;3.32;71.61;93569.13;5092477;28;20027;-70
2021/03/14 04:07:36;;;;;;;20.58;11.18;;;;;;;3.32;71.32;93564.63;5091287;28;20103;-70
2021/03/14 04:10:03;;;;;;;26.88;12.25;;;;;;;3.34;71.47;93567.00;5091118;28;20036;-71
2021/03/14 04:12:30;;;;;;;28.50;12.60;;;;;;;3.38;71.34;93568.81;5091273;28;20028;-70
2021/03/14 04:14:55;;;;;;;25.42;14.23;;;;;;;3.40;71.31;93560.63;5092350;28;20032;-71
2021/03/14 04:17:21;;;;;;;27.08;14.00;;;;;;;3.44;71.20;93566.13;5092642;28;20448;-70
2021/03/14 04:19:48;;;;;;;27.65;13.73;;;;;;;3.38;70.64;93560.91;5091967;28;20089;-70
2021/03/14 04:22:14;;;;;;;24.17;12.45;;;;;;;3.38;70.90;93558.28;5090991;28;20110;-70
2021/03/14 04:24:42;;;;;;;25.23;12.85;;;;;;;3.40;70.48;93556.16;5092434;28;20034;-70
2021/03/14 04:27:08;;;;;;;27.33;15.05;;;;;;;3.36;70.78;93556.97;5092213;28;20042;-70
2021/03/14 04:29:36;;;;;;;23.98;12.98;;;;;;;3.31;70.80;93551.72;5090923;28;20379;-70
2021/03/14 04:32:02;;;;;;;26.45;14.23;;;;;;;3.29;71.22;93551.22;5090624;28;20063;-70
2021/03/14 04:34:27;;;;;;;31.77;14.93;;;;;;;3.28;71.77;93545.16;5092000;28;20557;-70
2021/03/14 04:36:54;;;;;;;31.15;14.75;;;;;;;3.17;72.01;93541.03;5091941;28;20028;-70
2021/03/14 04:39:20;;;;;;;29.42;13.95;;;;;;;3.15;72.30;93540.50;5092150;28;20028;-71
2021/03/14 04:41:47;;;;;;;33.40;15.57;;;;;;;3.20;72.34;93540.50;5092229;28;20035;-70
2021/03/14 04:44:14;;;;;;;26.80;14.68;;;;;;;3.22;71.86;93541.00;5092135;28;20392;-70
2021/03/14 04:46:42;;;;;;;32.05;15.80;;;;;;;3.18;71.76;93539.97;5090619;28;20495;-70
2021/03/14 04:49:08;;;;;;;34.25;15.88;;;;;;;3.25;72.04;93532.53;5090405;28;20036;-70
2021/03/14 04:51:40;;;;;;;27.65;15.20;;;;;;;3.27;71.88;93538.31;5090666;28;20081;-70
2021/03/14 04:54:06;;;;;;;35.67;15.50;;;;;;;3.32;72.02;93534.88;5090113;28;20048;-70
2021/03/14 04:56:33;;;;;;;28.20;13.85;;;;;;;3.38;71.89;93531.94;5091468;28;20039;-70
2021/03/14 04:58:59;;;;;;;30.25;13.60;;;;;;;3.45;71.68;93536.09;5089618;28;20026;-70
2021/03/14 05:01:26;;;;;;;32.00;15.32;;;;;;;3.51;71.04;93537.63;5091614;28;20570;-70
2021/03/14 05:03:55;;;;;;;31.83;15.50;;;;;;;3.56;70.93;93538.38;5091561;28;20035;-70
2021/03/14 05:06:21;;;;;;;26.95;14.30;;;;;;;3.62;70.71;93531.19;5082056;28;20441;-70
2021/03/14 05:08:48;;;;;;;30.15;13.80;;;;;;;3.68;70.88;93534.56;5091682;28;20024;-70
2021/03/14 05:11:18;;;;;;;30.35;13.50;;;;;;;3.76;70.68;93526.84;5091363;28;20406;-69
2021/03/14 05:13:46;;;;;;;33.15;14.32;;;;;;;3.81;70.63;93529.44;5091468;28;20028;-69
2021/03/14 05:16:16;;;;;;;35.40;16.67;;;;;;;3.92;70.29;93539.88;5089878;28;20054;-69
2021/03/14 05:18:43;;;;;;;33.67;15.80;;;;;;;3.88;70.50;93533.59;5090110;28;20118;-70
2021/03/14 05:21:10;;;;;;;38.83;16.17;;;;;;;3.95;70.40;93528.78;5091176;28;20028;-69
2021/03/14 05:23:36;;;;;;;30.23;15.07;;;;;;;3.99;69.84;93535.09;5090062;28;20047;-69
2021/03/14 05:26:04;;;;;;;27.75;13.43;;;;;;;3.99;69.16;93533.22;5091236;28;20051;-69
2021/03/14 05:28:30;;;;;;;25.45;12.80;;;;;;;3.97;68.60;93532.72;5091457;28;20034;-70
2021/03/14 05:30:57;;;;;;;23.48;12.65;;;;;;;3.93;69.29;93538.81;5090050;28;20466;-70
2021/03/14 05:33:22;;;;;;;24.35;12.55;;;;;;;3.86;69.66;93530.44;5089488;28;20024;-69
2021/03/14 05:35:48;;;;;;;25.67;12.05;;;;;;;3.84;70.18;93533.34;5091103;28;20024;-69
2021/03/14 05:38:13;;;;;;;23.70;12.95;;;;;;;3.78;70.04;93542.38;5091031;28;20042;-70
2021/03/14 05:40:39;;;;;;;28.00;13.25;;;;;;;3.62;71.16;93541.72;5091553;28;20080;-70
2021/03/14 05:43:05;;;;;;;27.33;12.55;;;;;;;3.62;71.30;93531.19;5089616;28;20186;-70
2021/03/14 05:45:30;;;;;;;21.33;13.30;;;;;;;3.65;71.32;93535.91;5090678;28;20016;-69
2021/03/14 05:47:57;;;;;;;30.33;16.73;;;;;;;3.58;71.38;93530.16;5089426;28;20039;-69
2021/03/14 05:50:26;;;;;;;34.33;18.65;;;;;;;3.59;71.64;93532.53;5089208;28;20106;-70
2021/03/14 05:52:52;;;;;;;33.45;17.83;;;;;;;3.61;71.73;93535.69;5090550;28;20517;-69
2021/03/14 05:55:20;;;;;;;36.00;17.90;;;;;;;3.68;71.03;93535.34;5088879;28;20115;-69
2021/03/14 05:57:50;;;;;;;32.03;16.98;;;;;;;3.67;70.96;93533.00;5090636;28;20020;-69
2021/03/14 06:00:26;;;;;;;31.52;17.55;;;;;;;3.69;71.18;93530.88;5086877;28;20108;-69
2021/03/14 06:02:57;;;;;;;33.20;16.08;;;;;;;3.79;71.17;93536.84;5089594;28;20518;-70
2021/03/14 06:05:24;;;;;;;36.42;17.98;;;;;;;3.93;70.94;93541.44;5089249;28;20046;-70
2021/03/14 06:07:49;;;;;;;42.08;18.63;;;;;;;3.94;70.82;93537.75;5090644;28;20027;-70
2021/03/14 06:10:17;;;;;;;36.95;19.60;;;;;;;3.93;71.62;93528.25;5089067;28;20028;-70
2021/03/14 06:12:43;;;;;;;34.00;17.02;;;;;;;4.00;71.42;93540.06;5090826;28;20068;-70
2021/03/14 06:15:09;;;;;;;31.50;17.25;;;;;;;4.06;70.98;93534.75;5089262;28;20020;-70
2021/03/14 06:17:35;;;;;;;30.83;15.82;;;;;;;4.11;70.87;93545.22;5088964;28;20073;-70
2021/03/14 06:20:02;;;;;;;33.35;14.80;;;;;;;4.20;69.89;93548.84;5090580;28;20111;-70
2021/03/14 06:22:28;;;;;;;28.27;14.60;;;;;;;4.30;69.64;93540.03;5090190;28;20095;-71
2021/03/14 06:24:54;;;;;;;23.48;13.15;;;;;;;4.41;69.75;93541.47;5090514;28;20020;-71
2021/03/14 06:27:31;;;;;;;24.73;11.85;;;;;;;4.53;68.85;93543.72;5088959;28;20119;-70
2021/03/14 06:29:57;;;;;;;29.02;13.85;;;;;;;4.58;68.97;93547.09;5090584;28;20020;-70
2021/03/14 06:32:22;;;;;;;26.67;13.73;;;;;;;4.58;69.21;93536.53;5088933;28;20440;-70
2021/03/14 06:34:48;;;;;;;25.08;14.65;;;;;;;4.62;69.25;93548.09;5090429;28;20039;-70
2021/03/14 06:37:15;;;;;;;28.25;13.30;;;;;;;4.72;68.51;93551.66;5088987;28;20387;-70
2021/03/14 06:39:44;;;;;;;26.63;15.18;;;;;;;4.76;69.18;93548.19;5089224;28;20035;-70
2021/03/14 06:42:10;;;;;;;26.38;15.00;;;;;;;4.80;68.47;93543.09;5090592;28;20035;-70
2021/03/14 06:44:37;;;;;;;28.42;15.75;;;;;;;4.78;68.89;93555.81;5090513;28;20035;-70
2021/03/14 06:47:07;;;;;;;28.83;15.77;;;;;;;4.86;68.88;93547.25;5089306;28;20024;-70
2021/03/14 06:49:38;;;;;;;29.55;13.85;;;;;;;4.87;69.12;93559.41;5089022;28;20099;-71
2021/03/14 06:52:04;;;;;;;27.98;14.32;;;;;;;4.93;69.28;93552.19;5089166;28;20024;-70
2021/03/14 06:54:34;;;;;;;25.80;13.43;;;;;;;4.93;68.40;93549.56;5091213;28;20047;-70
2021/03/14 06:57:11;;;;;;;25.70;14.30;;;;;;;5.00;68.42;93536.75;5094228;28;20028;-70
2021/03/14 06:59:45;;;;;;;35.13;14.38;;;;;;;5.10;67.97;93556.97;5092571;28;20036;-70
2021/03/14 07:02:15;;;;;;;29.15;13.88;;;;;;;5.17;67.63;93550.28;5094246;28;20039;-70
2021/03/14 07:04:49;;;;;;;26.23;13.13;;;;;;;5.25;67.49;93538.28;5093897;28;20119;-71
2021/03/14 07:07:16;;;;;;;25.80;14.25;;;;;;;5.38;67.49;93548.09;5092718;28;20028;-71
2021/03/14 07:09:42;;;;;;;20.45;12.65;;;;;;;5.52;67.01;93547.38;5093806;28;20142;-70
2021/03/14 07:12:16;;;;;;;21.52;12.15;;;;;;;5.61;66.88;93546.41;5092630;28;20024;-70
2021/03/14 07:14:42;;;;;;;33.72;12.98;;;;;;;5.63;66.41;93544.25;5093698;28;20066;-70
2021/03/14 07:17:08;;;;;;;27.10;12.68;;;;;;;5.79;66.03;93536.88;5093583;28;20097;-70
2021/03/14 07:19:33;;;;;;;30.45;12.38;;;;;;;5.92;65.78;93535.34;5093554;28;20027;-71
2021/03/14 07:22:10;;;;;;;27.25;12.05;;;;;;;6.08;65.80;93535.88;5093735;28;20024;-70
2021/03/14 07:24:38;;;;;;;24.73;13.50;;;;;;;6.23;65.29;93535.59;5091990;28;20047;-70
2021/03/14 07:27:11;;;;;;;20.35;12.32;;;;;;;6.40;64.90;93536.88;5092445;28;20032;-70
2021/03/14 07:29:39;;;;;;;21.33;11.00;;;;;;;6.53;64.48;93527.38;5090152;28;20118;-70
2021/03/14 07:32:06;;;;;;;18.85;10.30;;;;;;;6.61;64.04;93535.41;5092244;28;20473;-70
2021/03/14 07:34:33;;;;;;;21.95;10.63;;;;;;;6.75;63.89;93514.19;5091831;28;20020;-70
2021/03/14 07:36:58;;;;;;;20.50;11.27;;;;;;;6.88;63.41;93517.91;5093559;28;20063;-70
2021/03/14 07:39:24;;;;;;;21.45;10.50;;;;;;;7.00;63.00;93514.72;5092210;28;20059;-70
2021/03/14 07:41:50;;;;;;;19.10;10.25;;;;;;;7.13;62.20;93513.91;5093245;28;20016;-70
2021/03/14 07:44:26;;;;;;;20.80;10.88;;;;;;;7.26;61.87;93507.00;5092360;28;20069;-70
2021/03/14 07:46:52;;;;;;;20.25;10.50;;;;;;;7.38;61.24;93515.19;5092999;28;20020;-70
2021/03/14 07:49:20;;;;;;;18.83;11.20;;;;;;;7.49;61.07;93509.66;5091758;28;20028;-70
2021/03/14 07:51:49;;;;;;;26.70;11.43;;;;;;;7.56;60.64;93510.03;5091774;28;20027;-70
2021/03/14 07:54:24;;;;;;;18.38;10.40;;;;;;;7.64;60.48;93504.00;5091725;28;20036;-70
2021/03/14 07:56:53;;;;;;;17.10;10.55;;;;;;;7.73;60.03;93493.44;5093058;28;20032;-70
2021/03/14 07:59:27;;;;;;;21.52;11.32;;;;;;;7.81;60.01;93496.13;5091707;28;20072;-71
2021/03/14 08:01:53;;;;;;;20.52;12.05;;;;;;;7.91;59.18;93496.97;5092687;28;20031;-70
2021/03/14 08:04:30;;;;;;;25.15;12.45;;;;;;;7.95;59.09;93504.00;5091571;28;20024;-71
2021/03/14 08:06:55;;;;;;;21.60;12.90;;;;;;;7.97;59.03;93498.41;5090581;28;20028;-70
2021/03/14 08:09:46;;;;;;;23.63;12.45;;;;;;;8.08;59.34;93490.94;5092780;28;20035;-71
2021/03/14 08:12:17;;;;;;;19.70;11.45;;;;;;;8.16;58.46;93485.69;5091616;28;20115;-70
2021/03/14 08:14:44;;;;;;;22.45;10.88;;;;;;;8.23;58.26;93486.03;5088613;28;20451;-70
2021/03/14 08:17:16;;;;;;;22.92;13.13;;;;;;;8.35;58.22;93479.34;5092651;28;20377;-70
2021/03/14 08:19:43;;;;;;;25.67;13.73;;;;;;;8.42;57.76;93477.81;5089712;28;20028;-70
2021/03/14 08:22:38;;;;;;;23.10;12.75;;;;;;;8.48;57.50;93483.78;5091166;28;20039;-70
2021/03/14 08:25:21;;;;;;;23.88;15.18;;;;;;;8.57;57.86;93478.50;5082708;28;20020;-70
2021/03/14 08:27:48;;;;;;;23.30;11.90;;;;;;;8.55;56.61;93473.50;5089932;28;20020;-70
2021/03/14 08:30:32;;;;;;;23.50;13.07;;;;;;;8.59;56.88;93471.78;5090988;28;20513;-70
2021/03/14 08:33:26;;;;;;;23.20;11.88;;;;;;;8.60;56.80;93476.00;5092232;28;20023;-70
2021/03/14 08:35:57;;;;;;;33.53;15.38;;;;;;;8.57;57.48;93479.28;5088790;28;20032;-70
2021/03/14 08:38:35;;;;;;;30.53;17.10;;;;;;;8.67;57.99;93478.22;5092440;28;20032;-70
2021/03/14 08:41:37;;;;;;;33.83;18.88;;;;;;;8.77;56.93;93474.47;5090635;28;20410;-70
2021/03/14 08:44:09;;;;;;;37.72;21.17;;;;;;;8.79;57.03;93472.28;5090254;28;20039;-71
2021/03/14 08:46:49;;;;;;;35.25;18.35;;;;;;;8.83;56.76;93478.53;5092244;28;20031;-70
2021/03/14 08:49:17;;;;;;;38.50;19.67;;;;;;;8.82;56.59;93479.63;5090803;28;20036;-71
2021/03/14 08:51:43;;;;;;;48.88;24.13;;;;;;;8.91;57.13;93480.41;5090691;28;20051;-71
2021/03/14 08:54:09;;;;;;;38.78;20.52;;;;;;;8.96;55.99;93468.88;5091811;28;20044;-71
2021/03/14 08:56:35;;;;;;;42.33;22.23;;;;;;;9.03;55.82;93466.50;5090663;28;20086;-71
2021/03/14 08:59:05;;;;;;;38.63;21.27;;;;;;;9.10;55.64;93471.34;5090519;28;20489;-70
2021/03/14 09:01:31;;;;;;;36.40;20.67;;;;;;;9.18;54.71;93470.56;5091868;28;20027;-70
2021/03/14 09:03:56;;;;;;;47.20;22.67;;;;;;;9.20;55.05;93473.72;5090674;28;20089;-70
2021/03/14 09:06:28;;;;;;;43.60;21.52;;;;;;;9.19;54.34;93469.50;5091928;28;20024;-70
2021/03/14 09:09:03;;;;;;;38.47;20.45;;;;;;;9.17;54.41;93469.03;5089038;28;20051;-70
2021/03/14 09:11:40;;;;;;;44.55;22.75;;;;;;;9.28;55.58;93469.47;5091900;28;20433;-71
2021/03/14 09:14:19;;;;;;;41.30;21.83;;;;;;;9.30;54.61;93459.31;5091709;28;20028;-70
2021/03/14 09:16:44;;;;;;;50.97;24.38;;;;;;;9.41;54.42;93456.03;5090455;28;20547;-71
2021/03/14 09:19:10;;;;;;;44.88;24.55;;;;;;;9.50;53.87;93455.22;5091413;28;20116;-70
2021/03/14 09:21:52;;;;;;;51.80;25.25;;;;;;;9.57;54.45;93452.88;5091647;28;20016;-70
2021/03/14 09:24:36;;;;;;;43.28;23.52;;;;;;;9.64;53.73;93451.28;5091523;28;20046;-71
2021/03/14 09:27:14;;;;;;;36.30;21.23;;;;;;;9.76;53.53;93450.63;5089173;28;20473;-71
2021/03/14 09:29:47;;;;;;;40.28;20.05;;;;;;;9.83;52.84;93444.81;5089809;28;20052;-70
2021/03/14 09:32:19;;;;;;;37.90;21.75;;;;;;;9.97;52.93;93442.75;5091039;28;20132;-70
2021/03/14 09:34:45;;;;;;;49.38;21.65;;;;;;;10.14;52.88;93433.13;5089744;28;20024;-71
2021/03/14 09:37:11;;;;;;;30.27;15.65;;;;;;;10.24;51.70;93435.44;5091069;28;20122;-71
2021/03/14 09:39:37;;;;;;;30.67;16.55;;;;;;;10.44;51.75;93428.59;5089792;28;20031;-70
2021/03/14 09:42:03;;;;;;;39.92;18.98;;;;;;;10.52;51.69;93429.66;5090799;28;20030;-70
2021/03/14 09:44:29;;;;;;;33.17;18.27;;;;;;;10.62;51.38;93430.09;5090834;28;20132;-70
2021/03/14 09:47:02;;;;;;;35.50;18.10;;;;;;;10.76;50.54;93426.38;5090848;28;20051;-70
2021/03/14 09:49:29;;;;;;;36.40;17.42;;;;;;;10.96;50.41;93417.63;5083665;28;20024;-70
2021/03/14 09:51:58;;;;;;;28.13;15.18;;;;;;;10.91;49.61;93409.81;5091052;28;20149;-71
2021/03/14 09:54:24;;;;;;;35.33;18.58;;;;;;;11.00;50.42;93415.84;5082391;28;20054;-71
2021/03/14 09:56:56;;;;;;;34.92;16.75;;;;;;;11.25;49.40;93413.28;5089611;28;20039;-71
2021/03/14 09:59:27;;;;;;;35.28;16.80;;;;;;;11.37;48.91;93410.66;5089727;28;20511;-70
2021/03/14 10:01:56;;;;;;;31.77;16.55;;;;;;;11.42;48.87;93405.13;5090623;28;20115;-70
2021/03/14 10:04:22;;;;;;;30.58;16.98;;;;;;;11.54;48.11;93414.28;5089233;28;20034;-70
2021/03/14 10:06:47;;;;;;;29.42;15.98;;;;;;;11.70;47.76;93417.09;5090753;28;20520;-70
2021/03/14 10:09:20;;;;;;;40.17;15.98;;;;;;;11.84;46.86;93413.03;5089288;28;20032;-71
2021/03/14 10:11:46;;;;;;;32.58;17.42;;;;;;;12.00;46.37;93410.50;5090215;28;20107;-70
2021/03/14 10:14:13;;;;;;;38.58;17.60;;;;;;;12.19;46.93;93407.31;5090558;28;20059;-70
2021/03/14 10:16:41;;;;;;;26.50;15.43;;;;;;;12.35;45.69;93409.31;5090544;28;20024;-71
2021/03/14 10:19:07;;;;;;;35.80;14.07;;;;;;;12.55;45.07;93394.25;5090562;28;20040;-70
2021/03/14 10:21:32;;;;;;;21.38;12.40;;;;;;;12.72;43.96;93398.56;5090512;28;20115;-70
2021/03/14 10:24:16;;;;;;;26.92;12.32;;;;;;;12.91;44.31;93384.63;5090639;28;20019;-70
2021/03/14 10:27:04;;;;;;;27.40;12.75;;;;;;;13.06;42.22;93386.56;5086634;28;20073;-71
2021/03/14 10:29:36;;;;;;;31.98;12.85;;;;;;;13.04;42.30;93384.22;5091817;28;20035;-70
2021/03/14 10:32:04;;;;;;;23.27;13.63;;;;;;;13.04;42.16;93386.13;5094775;28;20034;-70
2021/03/14 10:34:29;;;;;;;25.85;13.80;;;;;;;13.01;42.39;93381.47;5094477;28;20488;-70
2021/03/14 10:36:55;;;;;;;34.50;14.43;;;;;;;13.13;42.21;93369.94;5092893;28;20056;-70
2021/03/14 10:39:28;;;;;;;33.70;12.63;;;;;;;13.23;42.84;93369.47;5093067;28;20452;-70
2021/03/14 10:41:55;;;;;;;27.15;12.43;;;;;;;13.27;41.98;93366.84;5094426;28;20028;-70
2021/03/14 10:44:23;;;;;;;24.90;12.57;;;;;;;13.21;43.09;93361.00;5094317;28;20031;-71
2021/03/14 10:46:52;;;;;;;20.15;11.05;;;;;;;13.44;41.11;93356.66;5094305;28;20028;-70
2021/03/14 10:49:29;;;;;;;24.33;11.50;;;;;;;13.62;40.26;93343.72;5092466;28;20082;-70
2021/03/14 10:52:00;;;;;;;18.95;10.25;;;;;;;13.75;39.93;93344.44;5092886;28;20024;-71
2021/03/14 10:54:35;;;;;;;18.38;10.32;;;;;;;13.96;41.21;93332.66;5092658;28;20044;-70
2021/03/14 10:57:02;;;;;;;19.17;9.85;;;;;;;14.12;40.47;93317.34;5092665;28;20055;-71
2021/03/14 10:59:28;;;;;;;18.00;8.07;;;;;;;14.32;37.41;93318.19;5093704;28;20028;-70
2021/03/14 11:02:00;;;;;;;19.20;9.32;;;;;;;14.48;37.46;93318.16;5093764;28;20035;-70
2021/03/14 11:04:30;;;;;;;13.68;6.78;;;;;;;14.55;36.34;93309.47;5092446;28;20031;-70
2021/03/14 11:06:56;;;;;;;16.52;8.80;;;;;;;14.63;37.85;93305.84;5093759;28;20475;-71
2021/03/14 11:09:24;;;;;;;21.13;10.30;;;;;;;14.82;38.31;93307.78;5093687;28;20032;-71
2021/03/14 11:11:51;;;;;;;17.98;10.20;;;;;;;15.02;38.81;93305.84;5092584;28;20063;-70
2021/03/14 11:14:36;;;;;;;22.35;10.60;;;;;;;15.28;37.65;93289.09;5093727;28;20130;-71
2021/03/14 11:17:19;;;;;;;20.33;10.18;;;;;;;15.53;36.68;93284.19;5093769;28;20112;-70
2021/03/14 11:19:47;;;;;;;13.55;8.00;;;;;;;15.69;35.81;93281.34;5093521;28;20032;-70
2021/03/14 11:22:14;;;;;;;15.70;6.53;;;;;;;15.83;35.82;93273.56;5093631;28;20071;-70
2021/03/14 11:24:40;;;;;;;12.60;7.43;;;;;;;15.86;33.24;93272.06;5093408;28;20031;-70
2021/03/14 11:27:06;;;;;;;9.93;5.78;;;;;;;15.84;33.40;93263.59;5093468;28;20106;-71
2021/03/14 11:29:32;;;;;;;14.07;6.38;;;;;;;16.00;34.66;93269.59;5092210;28;20040;-71
2021/03/14 11:31:57;;;;;;;14.13;6.10;;;;;;;16.14;34.01;93266.34;5093775;28;20434;-71
2021/03/14 11:34:23;;;;;;;11.43;5.03;;;;;;;16.21;32.55;93255.69;5093341;28;20066;-71